sensor_id;sensor_type;location;lat;lon;timestamp;P1;durP1;ratioP1;P2;durP2;ratioP2
5939;SDS011;2995;-31.998;115.906;2023-07-31T00:00:59;39.33;;;10.23;;
5939;SDS011;2995;-31.998;115.906;2023-07-31T00:03:30;9.23;;;7.60;;
5939;SDS011;2995;-31.998;115.906;2023-07-31T00:06:02;9.10;;;7.20;;
5939;SDS011;2995;-31.998;115.906;2023-07-31T00:08:33;7.70;;;6.90;;
5939;SDS011;2995;-31.998;115.906;2023-07-31T00:11:06;9.13;;;7.60;;
5939;SDS011;2995;-31.998;115.906;2023-07-31T00:13:37;14.87;;;7.90;;
5939;SDS011;2995;-31.998;115.906;2023-07-31T00:16:09;13.17;;;7.20;;
5939;SDS011;2995;-31.998;115.906;2023-07-31T00:18:40;12.00;;;9.13;;
5939;SDS011;2995;-31.998;115.906;2023-07-31T00:21:11;8.43;;;7.53;;
5939;SDS011;2995;-31.998;115.906;2023-07-31T00:23:42;8.80;;;8.00;;
5939;SDS011;2995;-31.998;115.906;2023-07-31T00:26:15;9.00;;;8.20;;
5939;SDS011;2995;-31.998;115.906;2023-07-31T00:28:47;10.40;;;6.90;;
5939;SDS011;2995;-31.998;115.906;2023-07-31T00:31:18;7.10;;;6.40;;
5939;SDS011;2995;-31.998;115.906;2023-07-31T00:33:49;9.50;;;7.60;;
5939;SDS011;2995;-31.998;115.906;2023-07-31T00:36:20;8.73;;;7.00;;
5939;SDS011;2995;-31.998;115.906;2023-07-31T00:38:51;7.80;;;6.97;;
5939;SDS011;2995;-31.998;115.906;2023-07-31T00:41:25;6.80;;;5.80;;
5939;SDS011;2995;-31.998;115.906;2023-07-31T00:43:56;7.10;;;5.00;;
5939;SDS011;2995;-31.998;115.906;2023-07-31T00:46:27;5.57;;;5.10;;
5939;SDS011;2995;-31.998;115.906;2023-07-31T00:48:58;6.40;;;4.40;;
5939;SDS011;2995;-31.998;115.906;2023-07-31T00:51:30;6.27;;;4.50;;
5939;SDS011;2995;-31.998;115.906;2023-07-31T00:54:02;5.70;;;3.43;;
5939;SDS011;2995;-31.998;115.906;2023-07-31T00:56:36;2.90;;;2.70;;
5939;SDS011;2995;-31.998;115.906;2023-07-31T00:59:09;2.90;;;2.43;;
5939;SDS011;2995;-31.998;115.906;2023-07-31T01:01:41;2.07;;;1.90;;
5939;SDS011;2995;-31.998;115.906;2023-07-31T01:04:12;1.50;;;1.20;;
5939;SDS011;2995;-31.998;115.906;2023-07-31T01:06:45;1.70;;;1.33;;
5939;SDS011;2995;-31.998;115.906;2023-07-31T01:09:25;3.17;;;1.37;;
5939;SDS011;2995;-31.998;115.906;2023-07-31T01:12:06;1.70;;;1.20;;
5939;SDS011;2995;-31.998;115.906;2023-07-31T01:14:50;1.60;;;1.27;;
5939;SDS011;2995;-31.998;115.906;2023-07-31T01:17:30;1.17;;;1.07;;
5939;SDS011;2995;-31.998;115.906;2023-07-31T01:20:02;1.60;;;1.17;;
5939;SDS011;2995;-31.998;115.906;2023-07-31T01:22:45;1.47;;;1.20;;
5939;SDS011;2995;-31.998;115.906;2023-07-31T01:28:31;1.43;;;1.30;;
5939;SDS011;2995;-31.998;115.906;2023-07-31T01:31:10;2.37;;;2.17;;
5939;SDS011;2995;-31.998;115.906;2023-07-31T01:33:44;6.43;;;2.60;;
5939;SDS011;2995;-31.998;115.906;2023-07-31T01:36:16;3.47;;;2.60;;
5939;SDS011;2995;-31.998;115.906;2023-07-31T01:38:48;2.73;;;2.33;;
5939;SDS011;2995;-31.998;115.906;2023-07-31T01:41:21;3.50;;;3.20;;
5939;SDS011;2995;-31.998;115.906;2023-07-31T01:43:52;3.63;;;3.03;;
5939;SDS011;2995;-31.998;115.906;2023-07-31T01:46:23;3.50;;;3.20;;
5939;SDS011;2995;-31.998;115.906;2023-07-31T01:48:54;4.07;;;3.27;;
5939;SDS011;2995;-31.998;115.906;2023-07-31T01:51:26;7.80;;;2.83;;
5939;SDS011;2995;-31.998;115.906;2023-07-31T01:54:00;2.73;;;1.20;;
5939;SDS011;2995;-31.998;115.906;2023-07-31T01:56:34;1.77;;;1.10;;
5939;SDS011;2995;-31.998;115.906;2023-07-31T01:59:06;2.20;;;1.40;;
5939;SDS011;2995;-31.998;115.906;2023-07-31T02:01:37;2.50;;;1.60;;
5939;SDS011;2995;-31.998;115.906;2023-07-31T02:04:08;2.40;;;1.50;;
5939;SDS011;2995;-31.998;115.906;2023-07-31T02:06:40;1.87;;;1.67;;
5939;SDS011;2995;-31.998;115.906;2023-07-31T02:09:12;3.00;;;1.50;;
5939;SDS011;2995;-31.998;115.906;2023-07-31T02:11:45;3.17;;;1.50;;
5939;SDS011;2995;-31.998;115.906;2023-07-31T02:14:17;4.10;;;1.40;;
5939;SDS011;2995;-31.998;115.906;2023-07-31T02:16:48;2.80;;;1.00;;
5939;SDS011;2995;-31.998;115.906;2023-07-31T02:19:19;2.33;;;1.30;;
5939;SDS011;2995;-31.998;115.906;2023-07-31T02:21:50;4.30;;;1.00;;
5939;SDS011;2995;-31.998;115.906;2023-07-31T02:24:21;1.83;;;1.30;;
5939;SDS011;2995;-31.998;115.906;2023-07-31T02:26:55;5.10;;;1.70;;
5939;SDS011;2995;-31.998;115.906;2023-07-31T02:29:26;2.13;;;1.37;;
5939;SDS011;2995;-31.998;115.906;2023-07-31T02:31:57;1.67;;;1.00;;
5939;SDS011;2995;-31.998;115.906;2023-07-31T02:34:28;1.63;;;1.20;;
5939;SDS011;2995;-31.998;115.906;2023-07-31T02:36:59;1.60;;;1.30;;
5939;SDS011;2995;-31.998;115.906;2023-07-31T02:39:31;2.40;;;1.20;;
5939;SDS011;2995;-31.998;115.906;2023-07-31T02:42:04;4.20;;;1.23;;
5939;SDS011;2995;-31.998;115.906;2023-07-31T02:44:35;2.10;;;1.00;;
5939;SDS011;2995;-31.998;115.906;2023-07-31T02:47:07;5.17;;;1.03;;
5939;SDS011;2995;-31.998;115.906;2023-07-31T02:49:38;1.57;;;1.00;;
5939;SDS011;2995;-31.998;115.906;2023-07-31T02:52:09;1.83;;;0.80;;
5939;SDS011;2995;-31.998;115.906;2023-07-31T02:54:40;1.17;;;1.07;;
5939;SDS011;2995;-31.998;115.906;2023-07-31T02:57:14;1.07;;;0.97;;
5939;SDS011;2995;-31.998;115.906;2023-07-31T02:59:45;4.13;;;1.10;;
5939;SDS011;2995;-31.998;115.906;2023-07-31T03:02:16;2.40;;;0.83;;
5939;SDS011;2995;-31.998;115.906;2023-07-31T03:04:47;1.10;;;0.80;;
5939;SDS011;2995;-31.998;115.906;2023-07-31T03:07:18;2.27;;;0.90;;
5939;SDS011;2995;-31.998;115.906;2023-07-31T03:09:50;4.00;;;1.20;;
5939;SDS011;2995;-31.998;115.906;2023-07-31T03:12:23;2.10;;;0.83;;
5939;SDS011;2995;-31.998;115.906;2023-07-31T03:14:54;1.83;;;0.80;;
5939;SDS011;2995;-31.998;115.906;2023-07-31T03:17:25;1.47;;;0.70;;
5939;SDS011;2995;-31.998;115.906;2023-07-31T03:19:56;2.70;;;0.87;;
5939;SDS011;2995;-31.998;115.906;2023-07-31T03:22:28;3.03;;;0.70;;
5939;SDS011;2995;-31.998;115.906;2023-07-31T03:24:59;2.10;;;0.80;;
5939;SDS011;2995;-31.998;115.906;2023-07-31T03:27:32;1.30;;;0.80;;
5939;SDS011;2995;-31.998;115.906;2023-07-31T03:30:03;5.47;;;0.87;;
5939;SDS011;2995;-31.998;115.906;2023-07-31T03:32:36;3.93;;;0.80;;
5939;SDS011;2995;-31.998;115.906;2023-07-31T03:35:08;1.00;;;0.90;;
5939;SDS011;2995;-31.998;115.906;2023-07-31T03:37:39;1.40;;;0.90;;
5939;SDS011;2995;-31.998;115.906;2023-07-31T03:40:11;2.80;;;0.93;;
5939;SDS011;2995;-31.998;115.906;2023-07-31T03:42:44;1.87;;;0.80;;
5939;SDS011;2995;-31.998;115.906;2023-07-31T03:45:15;3.77;;;1.17;;
5939;SDS011;2995;-31.998;115.906;2023-07-31T03:47:46;2.83;;;1.00;;
5939;SDS011;2995;-31.998;115.906;2023-07-31T03:50:18;1.87;;;0.80;;
5939;SDS011;2995;-31.998;115.906;2023-07-31T03:52:49;2.40;;;1.10;;
5939;SDS011;2995;-31.998;115.906;2023-07-31T03:55:20;1.00;;;0.60;;
5939;SDS011;2995;-31.998;115.906;2023-07-31T03:57:53;1.80;;;0.70;;
5939;SDS011;2995;-31.998;115.906;2023-07-31T04:00:24;0.90;;;0.80;;
5939;SDS011;2995;-31.998;115.906;2023-07-31T04:02:56;1.67;;;0.93;;
5939;SDS011;2995;-31.998;115.906;2023-07-31T04:05:29;2.90;;;0.70;;
5939;SDS011;2995;-31.998;115.906;2023-07-31T04:08:01;1.73;;;0.60;;
5939;SDS011;2995;-31.998;115.906;2023-07-31T04:10:32;2.13;;;0.80;;
5939;SDS011;2995;-31.998;115.906;2023-07-31T04:13:05;2.97;;;0.70;;
5939;SDS011;2995;-31.998;115.906;2023-07-31T04:15:37;2.70;;;1.00;;
5939;SDS011;2995;-31.998;115.906;2023-07-31T04:18:08;2.63;;;1.00;;
5939;SDS011;2995;-31.998;115.906;2023-07-31T04:20:39;5.07;;;0.80;;
5939;SDS011;2995;-31.998;115.906;2023-07-31T04:23:11;3.00;;;0.90;;
5939;SDS011;2995;-31.998;115.906;2023-07-31T04:25:42;1.00;;;0.80;;
5939;SDS011;2995;-31.998;115.906;2023-07-31T04:28:15;3.03;;;0.90;;
5939;SDS011;2995;-31.998;115.906;2023-07-31T04:30:47;2.07;;;0.80;;
5939;SDS011;2995;-31.998;115.906;2023-07-31T04:33:18;2.80;;;1.13;;
5939;SDS011;2995;-31.998;115.906;2023-07-31T04:35:50;1.97;;;0.87;;
5939;SDS011;2995;-31.998;115.906;2023-07-31T04:38:22;1.77;;;0.80;;
5939;SDS011;2995;-31.998;115.906;2023-07-31T04:40:53;1.93;;;0.90;;
5939;SDS011;2995;-31.998;115.906;2023-07-31T04:43:26;1.33;;;0.70;;
5939;SDS011;2995;-31.998;115.906;2023-07-31T04:45:57;1.40;;;0.63;;
5939;SDS011;2995;-31.998;115.906;2023-07-31T04:48:29;3.03;;;0.80;;
5939;SDS011;2995;-31.998;115.906;2023-07-31T04:51:00;1.20;;;0.70;;
5939;SDS011;2995;-31.998;115.906;2023-07-31T04:53:31;1.00;;;0.77;;
5939;SDS011;2995;-31.998;115.906;2023-07-31T04:56:02;0.80;;;0.67;;
5939;SDS011;2995;-31.998;115.906;2023-07-31T04:58:35;2.07;;;0.80;;
5939;SDS011;2995;-31.998;115.906;2023-07-31T05:01:07;1.00;;;0.70;;
5939;SDS011;2995;-31.998;115.906;2023-07-31T05:03:38;2.23;;;1.00;;
5939;SDS011;2995;-31.998;115.906;2023-07-31T05:06:09;1.33;;;0.83;;
5939;SDS011;2995;-31.998;115.906;2023-07-31T05:08:41;2.97;;;0.80;;
5939;SDS011;2995;-31.998;115.906;2023-07-31T05:11:12;2.60;;;0.90;;
5939;SDS011;2995;-31.998;115.906;2023-07-31T05:13:46;1.10;;;0.90;;
5939;SDS011;2995;-31.998;115.906;2023-07-31T05:16:17;2.60;;;0.80;;
5939;SDS011;2995;-31.998;115.906;2023-07-31T05:18:48;1.00;;;0.90;;
5939;SDS011;2995;-31.998;115.906;2023-07-31T05:21:19;5.63;;;1.10;;
5939;SDS011;2995;-31.998;115.906;2023-07-31T05:23:51;3.27;;;0.90;;
5939;SDS011;2995;-31.998;115.906;2023-07-31T05:26:22;2.87;;;0.93;;
5939;SDS011;2995;-31.998;115.906;2023-07-31T05:28:55;0.90;;;0.80;;
5939;SDS011;2995;-31.998;115.906;2023-07-31T05:31:27;1.17;;;0.77;;
5939;SDS011;2995;-31.998;115.906;2023-07-31T05:33:58;1.50;;;0.90;;
5939;SDS011;2995;-31.998;115.906;2023-07-31T05:36:29;1.70;;;1.20;;
5939;SDS011;2995;-31.998;115.906;2023-07-31T05:39:01;1.77;;;1.20;;
5939;SDS011;2995;-31.998;115.906;2023-07-31T05:41:35;5.00;;;1.20;;
5939;SDS011;2995;-31.998;115.906;2023-07-31T05:44:08;3.13;;;1.10;;
5939;SDS011;2995;-31.998;115.906;2023-07-31T05:46:39;3.17;;;1.00;;
5939;SDS011;2995;-31.998;115.906;2023-07-31T05:49:10;2.73;;;1.00;;
5939;SDS011;2995;-31.998;115.906;2023-07-31T05:51:42;4.20;;;1.00;;
5939;SDS011;2995;-31.998;115.906;2023-07-31T05:54:13;5.63;;;1.20;;
5939;SDS011;2995;-31.998;115.906;2023-07-31T05:56:44;1.23;;;0.90;;
5939;SDS011;2995;-31.998;115.906;2023-07-31T05:59:18;3.50;;;1.10;;
5939;SDS011;2995;-31.998;115.906;2023-07-31T06:01:49;1.13;;;0.90;;
5939;SDS011;2995;-31.998;115.906;2023-07-31T06:04:20;1.63;;;0.80;;
5939;SDS011;2995;-31.998;115.906;2023-07-31T06:06:51;1.00;;;0.77;;
5939;SDS011;2995;-31.998;115.906;2023-07-31T06:09:23;1.97;;;0.70;;
5939;SDS011;2995;-31.998;115.906;2023-07-31T06:11:54;1.53;;;0.80;;
5939;SDS011;2995;-31.998;115.906;2023-07-31T06:14:27;2.07;;;0.87;;
5939;SDS011;2995;-31.998;115.906;2023-07-31T06:16:58;2.30;;;0.80;;
5939;SDS011;2995;-31.998;115.906;2023-07-31T06:19:30;1.97;;;0.90;;
5939;SDS011;2995;-31.998;115.906;2023-07-31T06:22:04;1.27;;;0.80;;
5939;SDS011;2995;-31.998;115.906;2023-07-31T06:24:35;1.03;;;0.80;;
5939;SDS011;2995;-31.998;115.906;2023-07-31T06:27:07;1.23;;;0.67;;
5939;SDS011;2995;-31.998;115.906;2023-07-31T06:29:40;1.20;;;0.90;;
5939;SDS011;2995;-31.998;115.906;2023-07-31T06:32:11;1.20;;;0.70;;
5939;SDS011;2995;-31.998;115.906;2023-07-31T06:34:43;1.17;;;0.80;;
5939;SDS011;2995;-31.998;115.906;2023-07-31T06:37:14;5.40;;;1.00;;
5939;SDS011;2995;-31.998;115.906;2023-07-31T06:39:45;2.60;;;0.70;;
5939;SDS011;2995;-31.998;115.906;2023-07-31T06:42:16;1.10;;;0.67;;
5939;SDS011;2995;-31.998;115.906;2023-07-31T06:44:50;2.53;;;0.90;;
5939;SDS011;2995;-31.998;115.906;2023-07-31T06:47:21;2.47;;;0.90;;
5939;SDS011;2995;-31.998;115.906;2023-07-31T06:49:52;2.27;;;0.90;;
5939;SDS011;2995;-31.998;115.906;2023-07-31T06:52:23;1.43;;;0.90;;
5939;SDS011;2995;-31.998;115.906;2023-07-31T06:55:04;3.60;;;0.80;;
5939;SDS011;2995;-31.998;115.906;2023-07-31T06:57:46;1.20;;;0.63;;
5939;SDS011;2995;-31.998;115.906;2023-07-31T07:00:19;2.57;;;0.90;;
5939;SDS011;2995;-31.998;115.906;2023-07-31T07:02:51;0.97;;;0.70;;
5939;SDS011;2995;-31.998;115.906;2023-07-31T07:05:22;2.10;;;0.67;;
5939;SDS011;2995;-31.998;115.906;2023-07-31T07:07:54;1.53;;;0.60;;
5939;SDS011;2995;-31.998;115.906;2023-07-31T07:10:25;4.50;;;0.90;;
5939;SDS011;2995;-31.998;115.906;2023-07-31T07:12:56;2.87;;;0.80;;
5939;SDS011;2995;-31.998;115.906;2023-07-31T07:15:29;1.07;;;0.80;;
5939;SDS011;2995;-31.998;115.906;2023-07-31T07:18:01;1.93;;;0.80;;
5939;SDS011;2995;-31.998;115.906;2023-07-31T07:20:32;1.47;;;0.90;;
5939;SDS011;2995;-31.998;115.906;2023-07-31T07:23:03;0.80;;;0.70;;
5939;SDS011;2995;-31.998;115.906;2023-07-31T07:25:37;4.17;;;1.10;;
5939;SDS011;2995;-31.998;115.906;2023-07-31T07:28:08;1.67;;;0.87;;
5939;SDS011;2995;-31.998;115.906;2023-07-31T07:30:42;1.53;;;0.73;;
5939;SDS011;2995;-31.998;115.906;2023-07-31T07:33:13;1.37;;;0.80;;
5939;SDS011;2995;-31.998;115.906;2023-07-31T07:35:44;1.00;;;0.70;;
5939;SDS011;2995;-31.998;115.906;2023-07-31T07:38:15;7.67;;;0.90;;
5939;SDS011;2995;-31.998;115.906;2023-07-31T07:40:47;1.57;;;0.90;;
5939;SDS011;2995;-31.998;115.906;2023-07-31T07:43:20;1.50;;;0.73;;
5939;SDS011;2995;-31.998;115.906;2023-07-31T07:45:53;1.73;;;0.70;;
5939;SDS011;2995;-31.998;115.906;2023-07-31T07:48:24;2.20;;;0.77;;
5939;SDS011;2995;-31.998;115.906;2023-07-31T07:50:56;1.40;;;0.67;;
5939;SDS011;2995;-31.998;115.906;2023-07-31T07:53:27;1.30;;;0.80;;
5939;SDS011;2995;-31.998;115.906;2023-07-31T07:55:58;0.80;;;0.70;;
5939;SDS011;2995;-31.998;115.906;2023-07-31T07:58:29;2.80;;;0.90;;
5939;SDS011;2995;-31.998;115.906;2023-07-31T08:01:02;1.87;;;0.87;;
5939;SDS011;2995;-31.998;115.906;2023-07-31T08:03:34;2.17;;;0.70;;
5939;SDS011;2995;-31.998;115.906;2023-07-31T08:06:05;1.40;;;0.97;;
5939;SDS011;2995;-31.998;115.906;2023-07-31T08:08:36;1.77;;;0.90;;
5939;SDS011;2995;-31.998;115.906;2023-07-31T08:11:11;1.63;;;0.97;;
5939;SDS011;2995;-31.998;115.906;2023-07-31T08:13:42;1.00;;;0.80;;
5939;SDS011;2995;-31.998;115.906;2023-07-31T08:16:15;2.83;;;0.80;;
5939;SDS011;2995;-31.998;115.906;2023-07-31T08:18:46;4.23;;;0.73;;
5939;SDS011;2995;-31.998;115.906;2023-07-31T08:21:17;4.23;;;1.00;;
5939;SDS011;2995;-31.998;115.906;2023-07-31T08:23:49;2.30;;;0.90;;
5939;SDS011;2995;-31.998;115.906;2023-07-31T08:26:20;2.00;;;0.90;;
5939;SDS011;2995;-31.998;115.906;2023-07-31T08:28:51;1.20;;;0.87;;
5939;SDS011;2995;-31.998;115.906;2023-07-31T08:31:25;1.80;;;0.90;;
5939;SDS011;2995;-31.998;115.906;2023-07-31T08:33:57;2.37;;;0.80;;
5939;SDS011;2995;-31.998;115.906;2023-07-31T08:36:29;3.60;;;0.73;;
5939;SDS011;2995;-31.998;115.906;2023-07-31T08:39:00;1.23;;;0.93;;
5939;SDS011;2995;-31.998;115.906;2023-07-31T08:41:31;1.87;;;0.83;;
5939;SDS011;2995;-31.998;115.906;2023-07-31T08:44:08;3.27;;;0.90;;
5939;SDS011;2995;-31.998;115.906;2023-07-31T08:46:45;2.63;;;0.87;;
5939;SDS011;2995;-31.998;115.906;2023-07-31T08:49:17;1.20;;;0.80;;
5939;SDS011;2995;-31.998;115.906;2023-07-31T08:51:49;1.47;;;0.70;;
5939;SDS011;2995;-31.998;115.906;2023-07-31T08:54:25;2.20;;;0.87;;
5939;SDS011;2995;-31.998;115.906;2023-07-31T08:56:57;1.93;;;0.80;;
5939;SDS011;2995;-31.998;115.906;2023-07-31T08:59:29;1.67;;;0.60;;
5939;SDS011;2995;-31.998;115.906;2023-07-31T09:02:06;1.43;;;0.70;;
5939;SDS011;2995;-31.998;115.906;2023-07-31T09:04:38;1.60;;;0.80;;
5939;SDS011;2995;-31.998;115.906;2023-07-31T09:07:09;1.33;;;0.80;;
5939;SDS011;2995;-31.998;115.906;2023-07-31T09:09:43;1.50;;;0.80;;
5939;SDS011;2995;-31.998;115.906;2023-07-31T09:12:15;2.43;;;1.23;;
5939;SDS011;2995;-31.998;115.906;2023-07-31T09:14:46;2.00;;;0.80;;
5939;SDS011;2995;-31.998;115.906;2023-07-31T09:17:30;1.97;;;0.80;;
5939;SDS011;2995;-31.998;115.906;2023-07-31T09:20:13;2.17;;;0.83;;
5939;SDS011;2995;-31.998;115.906;2023-07-31T09:22:45;2.20;;;0.90;;
5939;SDS011;2995;-31.998;115.906;2023-07-31T09:25:17;3.07;;;0.90;;
5939;SDS011;2995;-31.998;115.906;2023-07-31T09:27:50;5.17;;;1.17;;
5939;SDS011;2995;-31.998;115.906;2023-07-31T09:30:23;6.67;;;0.90;;
5939;SDS011;2995;-31.998;115.906;2023-07-31T09:33:03;3.07;;;0.80;;
5939;SDS011;2995;-31.998;115.906;2023-07-31T09:35:35;3.37;;;1.03;;
5939;SDS011;2995;-31.998;115.906;2023-07-31T09:38:07;1.60;;;1.00;;
5939;SDS011;2995;-31.998;115.906;2023-07-31T09:40:40;2.60;;;1.10;;
5939;SDS011;2995;-31.998;115.906;2023-07-31T09:43:12;3.30;;;1.00;;
5939;SDS011;2995;-31.998;115.906;2023-07-31T09:45:46;4.30;;;0.90;;
5939;SDS011;2995;-31.998;115.906;2023-07-31T09:48:25;4.07;;;1.23;;
5939;SDS011;2995;-31.998;115.906;2023-07-31T09:50:56;5.40;;;1.40;;
5939;SDS011;2995;-31.998;115.906;2023-07-31T09:53:34;2.63;;;1.30;;
5939;SDS011;2995;-31.998;115.906;2023-07-31T09:56:06;7.73;;;1.30;;
5939;SDS011;2995;-31.998;115.906;2023-07-31T09:58:37;5.80;;;1.40;;
5939;SDS011;2995;-31.998;115.906;2023-07-31T10:01:08;6.43;;;1.67;;
5939;SDS011;2995;-31.998;115.906;2023-07-31T10:03:42;7.00;;;2.57;;
5939;SDS011;2995;-31.998;115.906;2023-07-31T10:06:15;3.33;;;2.10;;
5939;SDS011;2995;-31.998;115.906;2023-07-31T10:08:49;7.83;;;2.50;;
5939;SDS011;2995;-31.998;115.906;2023-07-31T10:11:23;5.30;;;2.17;;
5939;SDS011;2995;-31.998;115.906;2023-07-31T10:13:56;5.40;;;2.30;;
5939;SDS011;2995;-31.998;115.906;2023-07-31T10:16:28;6.67;;;2.80;;
5939;SDS011;2995;-31.998;115.906;2023-07-31T10:19:01;5.40;;;2.50;;
5939;SDS011;2995;-31.998;115.906;2023-07-31T10:21:34;7.03;;;2.47;;
5939;SDS011;2995;-31.998;115.906;2023-07-31T10:24:07;7.43;;;2.30;;
5939;SDS011;2995;-31.998;115.906;2023-07-31T10:26:39;9.40;;;2.80;;
5939;SDS011;2995;-31.998;115.906;2023-07-31T10:29:14;9.50;;;3.10;;
5939;SDS011;2995;-31.998;115.906;2023-07-31T10:31:47;5.50;;;2.53;;
5939;SDS011;2995;-31.998;115.906;2023-07-31T10:34:22;3.60;;;2.60;;
5939;SDS011;2995;-31.998;115.906;2023-07-31T10:39:56;6.30;;;3.27;;
5939;SDS011;2995;-31.998;115.906;2023-07-31T10:42:29;4.40;;;2.13;;
5939;SDS011;2995;-31.998;115.906;2023-07-31T10:45:02;6.67;;;2.70;;
5939;SDS011;2995;-31.998;115.906;2023-07-31T10:47:39;7.43;;;2.57;;
5939;SDS011;2995;-31.998;115.906;2023-07-31T10:50:16;2.80;;;2.23;;
5939;SDS011;2995;-31.998;115.906;2023-07-31T10:52:51;7.07;;;2.47;;
5939;SDS011;2995;-31.998;115.906;2023-07-31T10:55:24;4.33;;;2.37;;
5939;SDS011;2995;-31.998;115.906;2023-07-31T10:58:05;3.47;;;2.10;;
5939;SDS011;2995;-31.998;115.906;2023-07-31T11:00:38;5.03;;;2.40;;
5939;SDS011;2995;-31.998;115.906;2023-07-31T11:03:10;5.80;;;2.00;;
5939;SDS011;2995;-31.998;115.906;2023-07-31T11:05:46;4.07;;;1.83;;
5939;SDS011;2995;-31.998;115.906;2023-07-31T11:08:20;6.20;;;3.37;;
5939;SDS011;2995;-31.998;115.906;2023-07-31T11:11:04;6.40;;;3.60;;
5939;SDS011;2995;-31.998;115.906;2023-07-31T11:13:40;5.80;;;4.47;;
5939;SDS011;2995;-31.998;115.906;2023-07-31T11:16:15;7.07;;;3.60;;
5939;SDS011;2995;-31.998;115.906;2023-07-31T11:18:48;6.73;;;3.90;;
5939;SDS011;2995;-31.998;115.906;2023-07-31T11:21:22;6.00;;;3.80;;
5939;SDS011;2995;-31.998;115.906;2023-07-31T11:23:56;5.10;;;3.57;;
5939;SDS011;2995;-31.998;115.906;2023-07-31T11:26:27;7.07;;;3.50;;
5939;SDS011;2995;-31.998;115.906;2023-07-31T11:28:58;5.57;;;3.57;;
5939;SDS011;2995;-31.998;115.906;2023-07-31T11:31:30;4.63;;;3.00;;
5939;SDS011;2995;-31.998;115.906;2023-07-31T11:34:06;4.07;;;2.90;;
5939;SDS011;2995;-31.998;115.906;2023-07-31T11:36:39;4.37;;;3.10;;
5939;SDS011;2995;-31.998;115.906;2023-07-31T11:39:21;10.47;;;3.80;;
5939;SDS011;2995;-31.998;115.906;2023-07-31T11:41:58;4.73;;;3.13;;
5939;SDS011;2995;-31.998;115.906;2023-07-31T11:44:37;7.40;;;4.60;;
5939;SDS011;2995;-31.998;115.906;2023-07-31T11:47:14;8.23;;;4.23;;
5939;SDS011;2995;-31.998;115.906;2023-07-31T11:49:46;9.57;;;4.10;;
5939;SDS011;2995;-31.998;115.906;2023-07-31T11:52:20;15.80;;;5.97;;
5939;SDS011;2995;-31.998;115.906;2023-07-31T11:54:52;12.53;;;10.10;;
5939;SDS011;2995;-31.998;115.906;2023-07-31T11:57:23;18.97;;;16.00;;
5939;SDS011;2995;-31.998;115.906;2023-07-31T11:59:55;16.17;;;12.50;;
5939;SDS011;2995;-31.998;115.906;2023-07-31T12:02:26;17.23;;;13.07;;
5939;SDS011;2995;-31.998;115.906;2023-07-31T12:04:58;15.97;;;11.90;;
5939;SDS011;2995;-31.998;115.906;2023-07-31T12:10:27;14.00;;;12.50;;
5939;SDS011;2995;-31.998;115.906;2023-07-31T12:12:59;14.40;;;10.80;;
5939;SDS011;2995;-31.998;115.906;2023-07-31T12:15:35;14.73;;;10.17;;
5939;SDS011;2995;-31.998;115.906;2023-07-31T12:18:08;15.13;;;10.50;;
5939;SDS011;2995;-31.998;115.906;2023-07-31T12:20:41;11.40;;;9.03;;
5939;SDS011;2995;-31.998;115.906;2023-07-31T12:23:16;13.27;;;9.90;;
5939;SDS011;2995;-31.998;115.906;2023-07-31T12:26:00;11.47;;;10.20;;
5939;SDS011;2995;-31.998;115.906;2023-07-31T12:28:35;11.73;;;9.60;;
5939;SDS011;2995;-31.998;115.906;2023-07-31T12:31:07;14.00;;;11.50;;
5939;SDS011;2995;-31.998;115.906;2023-07-31T12:33:39;14.27;;;11.60;;
5939;SDS011;2995;-31.998;115.906;2023-07-31T12:36:11;14.57;;;12.17;;
5939;SDS011;2995;-31.998;115.906;2023-07-31T12:38:44;13.50;;;11.97;;
5939;SDS011;2995;-31.998;115.906;2023-07-31T12:41:16;13.27;;;11.30;;
5939;SDS011;2995;-31.998;115.906;2023-07-31T12:43:47;12.77;;;11.33;;
5939;SDS011;2995;-31.998;115.906;2023-07-31T12:46:19;16.27;;;10.80;;
5939;SDS011;2995;-31.998;115.906;2023-07-31T12:48:51;10.53;;;9.10;;
5939;SDS011;2995;-31.998;115.906;2023-07-31T12:51:22;12.23;;;9.60;;
5939;SDS011;2995;-31.998;115.906;2023-07-31T12:53:55;10.43;;;9.40;;
5939;SDS011;2995;-31.998;115.906;2023-07-31T12:56:26;12.60;;;9.50;;
5939;SDS011;2995;-31.998;115.906;2023-07-31T12:58:58;11.00;;;8.80;;
5939;SDS011;2995;-31.998;115.906;2023-07-31T13:01:29;11.33;;;9.20;;
5939;SDS011;2995;-31.998;115.906;2023-07-31T13:04:00;14.67;;;11.73;;
5939;SDS011;2995;-31.998;115.906;2023-07-31T13:06:31;20.07;;;14.90;;
5939;SDS011;2995;-31.998;115.906;2023-07-31T13:09:04;23.83;;;15.70;;
5939;SDS011;2995;-31.998;115.906;2023-07-31T13:11:36;24.13;;;17.50;;
5939;SDS011;2995;-31.998;115.906;2023-07-31T13:14:07;22.13;;;16.07;;
5939;SDS011;2995;-31.998;115.906;2023-07-31T13:16:38;16.40;;;11.37;;
5939;SDS011;2995;-31.998;115.906;2023-07-31T13:19:09;11.17;;;10.00;;
5939;SDS011;2995;-31.998;115.906;2023-07-31T13:21:41;18.83;;;10.97;;
5939;SDS011;2995;-31.998;115.906;2023-07-31T13:24:14;13.03;;;10.87;;
5939;SDS011;2995;-31.998;115.906;2023-07-31T13:26:45;21.83;;;15.50;;
5939;SDS011;2995;-31.998;115.906;2023-07-31T13:29:16;20.97;;;16.73;;
5939;SDS011;2995;-31.998;115.906;2023-07-31T13:31:52;27.97;;;18.43;;
5939;SDS011;2995;-31.998;115.906;2023-07-31T13:34:23;20.87;;;17.07;;
5939;SDS011;2995;-31.998;115.906;2023-07-31T13:36:55;16.77;;;14.73;;
5939;SDS011;2995;-31.998;115.906;2023-07-31T13:39:28;16.97;;;12.73;;
5939;SDS011;2995;-31.998;115.906;2023-07-31T13:41:59;14.90;;;12.57;;
5939;SDS011;2995;-31.998;115.906;2023-07-31T13:44:32;13.87;;;10.27;;
5939;SDS011;2995;-31.998;115.906;2023-07-31T13:47:04;12.20;;;9.97;;
5939;SDS011;2995;-31.998;115.906;2023-07-31T13:49:35;16.33;;;10.60;;
5939;SDS011;2995;-31.998;115.906;2023-07-31T13:52:08;18.57;;;12.10;;
5939;SDS011;2995;-31.998;115.906;2023-07-31T13:54:41;17.77;;;11.13;;
5939;SDS011;2995;-31.998;115.906;2023-07-31T13:57:12;15.53;;;10.80;;
5939;SDS011;2995;-31.998;115.906;2023-07-31T13:59:43;16.80;;;11.40;;
5939;SDS011;2995;-31.998;115.906;2023-07-31T14:02:14;13.97;;;10.00;;
5939;SDS011;2995;-31.998;115.906;2023-07-31T14:04:45;10.40;;;9.10;;
5939;SDS011;2995;-31.998;115.906;2023-07-31T14:07:17;11.93;;;9.00;;
5939;SDS011;2995;-31.998;115.906;2023-07-31T14:09:50;10.90;;;8.70;;
5939;SDS011;2995;-31.998;115.906;2023-07-31T14:12:21;9.33;;;8.20;;
5939;SDS011;2995;-31.998;115.906;2023-07-31T14:14:57;11.60;;;7.47;;
5939;SDS011;2995;-31.998;115.906;2023-07-31T14:17:28;11.60;;;8.47;;
5939;SDS011;2995;-31.998;115.906;2023-07-31T14:19:59;11.43;;;8.83;;
5939;SDS011;2995;-31.998;115.906;2023-07-31T14:22:31;13.00;;;10.50;;
5939;SDS011;2995;-31.998;115.906;2023-07-31T14:25:04;14.87;;;13.33;;
5939;SDS011;2995;-31.998;115.906;2023-07-31T14:27:36;16.80;;;15.10;;
5939;SDS011;2995;-31.998;115.906;2023-07-31T14:30:08;18.30;;;13.33;;
5939;SDS011;2995;-31.998;115.906;2023-07-31T14:32:39;11.93;;;10.77;;
5939;SDS011;2995;-31.998;115.906;2023-07-31T14:35:10;9.70;;;8.70;;
5939;SDS011;2995;-31.998;115.906;2023-07-31T14:37:42;10.50;;;9.40;;
5939;SDS011;2995;-31.998;115.906;2023-07-31T14:40:15;12.77;;;9.40;;
5939;SDS011;2995;-31.998;115.906;2023-07-31T14:42:47;12.67;;;9.70;;
5939;SDS011;2995;-31.998;115.906;2023-07-31T14:45:18;10.40;;;8.50;;
5939;SDS011;2995;-31.998;115.906;2023-07-31T14:47:49;9.20;;;8.40;;
5939;SDS011;2995;-31.998;115.906;2023-07-31T14:50:21;9.80;;;7.77;;
5939;SDS011;2995;-31.998;115.906;2023-07-31T14:52:52;9.63;;;8.63;;
5939;SDS011;2995;-31.998;115.906;2023-07-31T14:55:25;9.50;;;8.70;;
5939;SDS011;2995;-31.998;115.906;2023-07-31T14:57:57;9.23;;;8.03;;
5939;SDS011;2995;-31.998;115.906;2023-07-31T15:00:28;13.90;;;8.47;;
5939;SDS011;2995;-31.998;115.906;2023-07-31T15:02:59;9.40;;;8.47;;
5939;SDS011;2995;-31.998;115.906;2023-07-31T15:05:30;12.83;;;8.30;;
5939;SDS011;2995;-31.998;115.906;2023-07-31T15:08:02;9.83;;;8.83;;
5939;SDS011;2995;-31.998;115.906;2023-07-31T15:10:35;11.90;;;8.50;;